Time;durP1;ratioP1;P1;durP2;ratioP2;P2;SDS_P1;SDS_P2;PMS_P1;PMS_P2;Temp;Humidity;BMP_temperature;BMP_pressure;BME280_temperature;BME280_humidity;BME280_pressure;Samples;Min_cycle;Max_cycle;Signal;HPM_P1;HPM_P2
2022/05/15 00:00:59;;;;;;;5.57;4.00;;;17.90;62.40;;;;;;5030379;28;20199;-75
2022/05/15 00:03:37;;;;;;;5.93;4.13;;;17.80;62.70;;;;;;5031536;28;20938;-76
2022/05/15 00:06:05;;;;;;;6.53;3.97;;;17.80;63.10;;;;;;5031541;28;20624;-75
2022/05/15 00:08:33;;;;;;;6.20;4.10;;;17.80;63.80;;;;;;5031013;28;21139;-76
2022/05/15 00:10:59;;;;;;;6.13;4.13;;;17.70;64.50;;;;;;5054287;23;21064;-80
2022/05/15 00:13:26;;;;;;;7.60;3.60;;;17.70;65.10;;;;;;5031851;28;20658;-80
2022/05/15 00:15:53;;;;;;;7.17;4.43;;;17.70;65.40;;;;;;5030391;28;20579;-80
2022/05/15 00:18:20;;;;;;;8.97;4.30;;;17.70;66.10;;;;;;5031118;28;20565;-79
2022/05/15 00:20:47;;;;;;;6.38;4.82;;;17.60;66.50;;;;;;5031152;28;20585;-79
2022/05/15 00:23:13;;;;;;;6.60;4.53;;;17.60;66.70;;;;;;5013759;28;20170;-79
2022/05/15 00:25:40;;;;;;;7.30;4.47;;;17.60;67.30;;;;;;5030212;28;21198;-80
2022/05/15 00:28:07;;;;;;;6.90;4.73;;;17.60;67.80;;;;;;5031235;28;20969;-80
2022/05/15 00:30:34;;;;;;;4.70;3.70;;;17.60;68.20;;;;;;5029975;28;21162;-80
2022/05/15 00:33:01;;;;;;;7.03;4.57;;;17.60;68.70;;;;;;5013858;28;20623;-80
2022/05/15 00:35:28;;;;;;;10.33;4.23;;;17.50;69.00;;;;;;5014171;28;20568;-80
2022/05/15 00:37:54;;;;;;;7.30;4.33;;;17.50;69.60;;;;;;5029391;28;20581;-79
2022/05/15 00:40:22;;;;;;;6.47;5.83;;;17.50;70.00;;;;;;5029879;28;21000;-80
2022/05/15 00:42:48;;;;;;;9.70;5.40;;;17.50;70.50;;;;;;5031521;28;20644;-80
2022/05/15 00:45:16;;;;;;;6.53;4.53;;;17.40;70.70;;;;;;5030164;28;20577;-79
2022/05/15 00:47:42;;;;;;;8.57;4.60;;;17.40;71.30;;;;;;5030073;28;20572;-80
2022/05/15 00:50:15;;;;;;;7.77;4.40;;;17.40;71.80;;;;;;5029911;28;20598;-79
2022/05/15 00:52:45;;;;;;;7.87;4.47;;;17.30;72.30;;;;;;5030257;28;20600;-79
2022/05/15 00:55:13;;;;;;;8.73;4.30;;;17.30;72.60;;;;;;5013609;28;20711;-79
2022/05/15 00:57:47;;;;;;;6.77;5.00;;;17.20;72.60;;;;;;5013013;28;20579;-79
2022/05/15 01:00:21;;;;;;;5.43;4.47;;;17.20;73.70;;;;;;5029856;28;20592;-79
2022/05/15 01:02:53;;;;;;;5.40;4.43;;;17.20;74.40;;;;;;5031194;28;21185;-79
2022/05/15 01:05:20;;;;;;;5.20;4.20;;;17.10;74.60;;;;;;5030098;28;20713;-81
2022/05/15 01:07:46;;;;;;;8.87;4.90;;;17.10;74.70;;;;;;4997685;28;20661;-79
2022/05/15 01:10:13;;;;;;;5.17;3.93;;;17.00;75.30;;;;;;5017179;28;20615;-79
2022/05/15 01:12:43;;;;;;;4.50;3.60;;;17.00;75.70;;;;;;5034043;28;20572;-80
2022/05/15 01:15:20;;;;;;;5.60;3.90;;;17.00;76.00;;;;;;5018444;28;20586;-80
2022/05/15 01:17:46;;;;;;;9.83;4.23;;;16.90;76.70;;;;;;5018175;28;20580;-80
2022/05/15 01:20:16;;;;;;;6.67;3.70;;;16.90;78.10;;;;;;5017289;28;20600;-80
2022/05/15 01:22:42;;;;;;;5.53;3.93;;;16.80;78.60;;;;;;5033831;28;20679;-80
2022/05/15 01:25:18;;;;;;;11.33;4.37;;;16.80;79.00;;;;;;5034817;28;20579;-80
2022/05/15 01:27:49;;;;;;;7.47;4.03;;;16.80;81.10;;;;;;5002173;28;20572;-80
2022/05/15 01:30:16;;;;;;;5.83;3.60;;;16.80;80.10;;;;;;5034372;28;20189;-81
2022/05/15 01:32:42;;;;;;;5.80;3.80;;;16.80;80.20;;;;;;5033871;28;20560;-80
2022/05/15 01:35:08;;;;;;;9.70;4.40;;;16.80;81.20;;;;;;5017226;28;20575;-80
2022/05/15 01:37:35;;;;;;;6.10;3.57;;;16.80;81.70;;;;;;5034935;28;20583;-80
2022/05/15 01:40:03;;;;;;;5.63;4.10;;;16.80;82.20;;;;;;5033480;28;20960;-80
2022/05/15 01:42:30;;;;;;;5.63;5.00;;;16.70;82.20;;;;;;5033437;28;20564;-80
2022/05/15 01:44:56;;;;;;;6.63;5.10;;;16.80;82.50;;;;;;5032435;28;20584;-80
2022/05/15 01:47:22;;;;;;;4.90;4.17;;;16.70;82.60;;;;;;5032904;28;20615;-80
2022/05/15 01:49:48;;;;;;;5.07;3.80;;;16.70;82.90;;;;;;5016708;28;20603;-80
2022/05/15 01:52:13;;;;;;;4.93;3.77;;;16.70;83.10;;;;;;5000592;28;20181;-80
2022/05/15 01:54:39;;;;;;;6.43;4.70;;;16.70;83.70;;;;;;5000792;28;20522;-80
2022/05/15 01:57:06;;;;;;;3.90;3.60;;;16.70;84.20;;;;;;5016445;28;20717;-80
2022/05/15 01:59:32;;;;;;;5.23;4.70;;;16.70;84.30;;;;;;4999982;28;20572;-81
2022/05/15 02:01:58;;;;;;;5.70;4.97;;;16.70;84.70;;;;;;5033164;28;20638;-80
2022/05/15 02:04:24;;;;;;;5.30;4.43;;;16.70;85.70;;;;;;5016558;28;20187;-80
2022/05/15 02:06:50;;;;;;;6.17;4.27;;;16.70;86.20;;;;;;5032177;28;20620;-80
2022/05/15 02:09:16;;;;;;;6.67;4.90;;;16.70;86.20;;;;;;5033003;28;20192;-80
2022/05/15 02:11:42;;;;;;;6.43;3.90;;;16.70;86.40;;;;;;5015682;28;20563;-80
2022/05/15 02:14:08;;;;;;;7.33;4.60;;;16.60;86.60;;;;;;5034142;28;20576;-81
2022/05/15 02:16:37;;;;;;;5.43;4.30;;;16.60;86.90;;;;;;5032499;28;20680;-80
2022/05/15 02:19:03;;;;;;;4.37;3.70;;;16.60;87.10;;;;;;5015586;28;20630;-79
2022/05/15 02:21:30;;;;;;;8.03;4.80;;;16.60;87.10;;;;;;5032328;28;20606;-81
2022/05/15 02:23:57;;;;;;;7.03;4.63;;;16.60;87.80;;;;;;5032554;28;20572;-81
2022/05/15 02:26:23;;;;;;;7.63;4.70;;;16.60;87.80;;;;;;5032665;28;20977;-81
2022/05/15 02:28:49;;;;;;;10.40;4.77;;;16.60;88.00;;;;;;5033486;28;20579;-80
2022/05/15 02:31:16;;;;;;;5.47;4.50;;;16.60;88.50;;;;;;5032237;28;20654;-80
2022/05/15 02:33:42;;;;;;;10.20;4.60;;;16.50;88.40;;;;;;5032405;28;20572;-81
2022/05/15 02:36:08;;;;;;;6.40;4.20;;;16.50;88.60;;;;;;5032664;28;20576;-80
2022/05/15 02:38:36;;;;;;;6.70;4.60;;;16.50;88.90;;;;;;5032308;28;20671;-81
2022/05/15 02:41:03;;;;;;;7.37;4.70;;;16.50;89.30;;;;;;5032549;28;20615;-80
2022/05/15 02:43:29;;;;;;;5.78;4.50;;;16.40;89.60;;;;;;5032491;28;20615;-80
2022/05/15 02:45:55;;;;;;;7.90;4.67;;;16.40;89.70;;;;;;5015880;28;20205;-80
2022/05/15 02:51:07;;;;;;;7.68;4.45;;;16.30;90.10;;;;;;5032362;28;20198;-81
2022/05/15 02:53:36;;;;;;;6.20;4.97;;;16.30;90.20;;;;;;5033426;28;20252;-81
2022/05/15 02:56:06;;;;;;;7.63;4.72;;;16.30;90.50;;;;;;5032349;28;20564;-80
2022/05/15 02:58:32;;;;;;;7.60;4.33;;;16.30;90.60;;;;;;5031755;28;20240;-81
2022/05/15 03:00:59;;;;;;;6.47;4.47;;;16.30;90.70;;;;;;5015093;28;20612;-81
2022/05/15 03:03:27;;;;;;;6.67;4.37;;;16.30;90.80;;;;;;5032365;28;20254;-81
2022/05/15 03:05:53;;;;;;;6.13;4.95;;;16.20;91.00;;;;;;5033148;28;20204;-81
2022/05/15 03:08:19;;;;;;;4.25;3.78;;;16.30;91.10;;;;;;5031428;28;20166;-82
2022/05/15 03:10:45;;;;;;;8.50;4.67;;;16.20;91.20;;;;;;5014219;28;20208;-81
2022/05/15 03:13:11;;;;;;;5.47;4.97;;;16.30;91.40;;;;;;5032048;28;20252;-80
2022/05/15 03:15:37;;;;;;;7.13;4.50;;;16.30;91.40;;;;;;5030420;28;20722;-80
2022/05/15 03:18:04;;;;;;;5.13;4.47;;;16.30;91.70;;;;;;5030294;28;20170;-80
2022/05/15 03:20:30;;;;;;;6.20;4.90;;;16.30;91.70;;;;;;5030298;28;20241;-80
2022/05/15 03:22:57;;;;;;;5.80;4.40;;;16.30;91.80;;;;;;5030504;28;21147;-81
2022/05/15 03:25:26;;;;;;;9.10;4.78;;;16.30;91.90;;;;;;5030842;28;20285;-80
2022/05/15 03:27:53;;;;;;;5.93;4.82;;;16.30;91.90;;;;;;5015046;28;20545;-80
2022/05/15 03:30:19;;;;;;;4.57;3.75;;;16.20;92.00;;;;;;5014949;28;20188;-80
2022/05/15 03:32:45;;;;;;;5.63;4.10;;;16.20;92.20;;;;;;5030887;28;20190;-80
2022/05/15 03:35:11;;;;;;;5.13;4.00;;;16.10;92.20;;;;;;5030521;28;20170;-80
2022/05/15 03:37:38;;;;;;;5.60;4.70;;;16.10;92.40;;;;;;5030182;28;20166;-80
2022/05/15 03:40:07;;;;;;;4.72;4.20;;;16.10;92.60;;;;;;5031196;28;20182;-80
2022/05/15 03:42:33;;;;;;;8.38;4.13;;;16.00;92.70;;;;;;5031415;28;20174;-80
2022/05/15 03:44:59;;;;;;;6.13;4.60;;;16.00;92.70;;;;;;5030872;28;20185;-80
2022/05/15 03:47:25;;;;;;;6.80;5.13;;;15.90;92.90;;;;;;5029733;28;20240;-80
2022/05/15 03:49:51;;;;;;;7.28;4.50;;;15.90;93.10;;;;;;5031216;28;21182;-80
2022/05/15 03:52:17;;;;;;;6.60;5.77;;;15.90;93.30;;;;;;5031343;28;20369;-79
2022/05/15 03:54:44;;;;;;;6.30;4.53;;;15.90;93.40;;;;;;5030221;28;20300;-80
2022/05/15 03:57:10;;;;;;;9.00;5.88;;;15.80;93.50;;;;;;5030778;28;20166;-79
2022/05/15 03:59:39;;;;;;;6.20;5.15;;;15.80;93.70;;;;;;5029555;28;20181;-80
2022/05/15 04:02:06;;;;;;;6.82;5.30;;;15.80;94.00;;;;;;5029848;28;20180;-80
2022/05/15 04:04:33;;;;;;;6.18;5.50;;;15.80;94.10;;;;;;5030062;28;20181;-79
2022/05/15 04:07:00;;;;;;;7.05;4.65;;;15.80;94.30;;;;;;5030766;28;20221;-80
2022/05/15 04:09:28;;;;;;;6.64;4.90;;;15.70;94.40;;;;;;4989927;28;1078339;-79
2022/05/15 04:11:54;;;;;;;5.03;4.15;;;15.80;94.80;;;;;;5030624;28;20605;-80
2022/05/15 04:14:20;;;;;;;5.57;4.65;;;15.80;94.80;;;;;;5030437;28;20196;-81
2022/05/15 04:16:47;;;;;;;8.00;4.10;;;15.80;94.90;;;;;;5013835;28;20660;-81
2022/05/15 04:19:12;;;;;;;7.72;5.07;;;15.80;95.00;;;;;;5031692;28;20663;-81
2022/05/15 04:21:40;;;;;;;5.20;4.38;;;15.90;95.20;;;;;;5013619;28;20217;-81
2022/05/15 04:24:09;;;;;;;6.30;4.68;;;15.90;95.30;;;;;;5030567;28;20165;-80
2022/05/15 04:26:37;;;;;;;6.35;5.18;;;15.90;95.50;;;;;;5031606;28;20275;-80
2022/05/15 04:29:04;;;;;;;5.10;4.70;;;15.90;95.60;;;;;;5029669;28;20227;-80
2022/05/15 04:31:30;;;;;;;9.60;5.00;;;15.90;95.60;;;;;;5013704;28;20213;-80
2022/05/15 04:33:57;;;;;;;14.90;6.87;;;16.00;95.80;;;;;;5030449;28;20571;-81
2022/05/15 04:36:23;;;;;;;6.38;4.80;;;16.00;96.00;;;;;;5031486;28;20560;-81
2022/05/15 04:38:49;;;;;;;9.15;6.45;;;16.00;96.00;;;;;;5029589;28;20205;-81
2022/05/15 04:41:15;;;;;;;7.18;5.40;;;16.00;96.20;;;;;;5030130;28;20276;-80
2022/05/15 04:43:41;;;;;;;6.10;5.50;;;16.10;96.30;;;;;;5029106;28;20253;-80
2022/05/15 04:46:07;;;;;;;6.63;4.70;;;16.10;96.40;;;;;;5031335;28;20608;-80
2022/05/15 04:48:39;;;;;;;5.30;3.93;;;16.10;96.50;;;;;;5030981;28;20572;-80
2022/05/15 04:51:05;;;;;;;5.97;4.68;;;16.20;96.90;;;;;;5029777;28;21007;-80
2022/05/15 04:53:31;;;;;;;7.15;4.30;;;16.30;96.80;;;;;;5031224;28;20170;-80
2022/05/15 04:55:58;;;;;;;7.57;4.82;;;16.30;96.80;;;;;;5031522;28;20170;-80
2022/05/15 04:58:24;;;;;;;7.18;4.97;;;16.40;97.00;;;;;;5029765;28;20215;-80
2022/05/15 05:00:50;;;;;;;7.50;4.63;;;16.40;97.00;;;;;;5030014;28;20619;-80
2022/05/15 05:03:16;;;;;;;5.18;4.45;;;16.50;97.10;;;;;;5032045;28;20177;-80
2022/05/15 05:05:42;;;;;;;5.57;4.80;;;16.60;97.20;;;;;;5032337;28;20243;-81
2022/05/15 05:08:10;;;;;;;7.83;5.57;;;16.60;97.30;;;;;;5014314;28;20455;-80
2022/05/15 05:10:36;;;;;;;7.57;6.20;;;16.70;97.50;;;;;;5030621;28;20249;-81
2022/05/15 05:13:03;;;;;;;5.70;4.80;;;16.70;97.50;;;;;;5029897;28;20900;-80
2022/05/15 05:15:29;;;;;;;10.80;5.53;;;16.80;97.50;;;;;;5031264;28;20592;-80
2022/05/15 05:17:55;;;;;;;6.15;5.43;;;16.80;97.50;;;;;;5030434;28;20618;-79
2022/05/15 05:20:22;;;;;;;6.60;4.80;;;16.90;97.60;;;;;;5029435;28;20603;-79
2022/05/15 05:22:47;;;;;;;5.87;5.07;;;16.90;97.50;;;;;;5031097;28;20557;-80
2022/05/15 05:25:13;;;;;;;8.13;5.17;;;16.90;97.90;;;;;;5029904;28;20564;-80
2022/05/15 05:27:41;;;;;;;6.33;5.47;;;17.00;97.50;;;;;;5030447;28;20158;-80
2022/05/15 05:30:17;;;;;;;7.37;4.60;;;17.10;97.50;;;;;;5031003;28;20593;-80
2022/05/15 05:32:43;;;;;;;6.53;4.10;;;17.20;97.40;;;;;;5013468;28;20582;-81
2022/05/15 05:35:10;;;;;;;6.43;4.90;;;17.20;97.10;;;;;;5031422;28;20572;-81
2022/05/15 05:37:36;;;;;;;4.73;3.90;;;17.30;97.00;;;;;;5031496;28;20573;-81
2022/05/15 05:40:03;;;;;;;8.00;4.80;;;17.30;96.90;;;;;;5014019;28;20676;-80
2022/05/15 05:42:28;;;;;;;5.93;4.20;;;17.40;96.80;;;;;;5030396;28;20573;-80
2022/05/15 05:44:54;;;;;;;7.03;4.50;;;17.40;96.60;;;;;;5033961;28;20963;-80
2022/05/15 05:47:27;;;;;;;10.40;4.43;;;17.50;96.80;;;;;;5031225;28;20608;-80
2022/05/15 05:49:55;;;;;;;8.43;4.27;;;17.70;97.00;;;;;;5029980;28;20595;-80
2022/05/15 05:52:22;;;;;;;9.07;4.00;;;18.00;97.40;;;;;;5031268;28;20677;-80
2022/05/15 05:54:48;;;;;;;7.20;3.53;;;18.60;98.10;;;;;;5032283;28;20671;-80
2022/05/15 05:57:14;;;;;;;5.27;3.30;;;19.40;98.70;;;;;;5033172;28;20671;-80
2022/05/15 05:59:39;;;;;;;5.33;3.33;;;20.20;98.10;;;;;;5000653;28;20217;-81
2022/05/15 06:02:06;;;;;;;4.43;3.33;;;21.00;98.10;;;;;;5016668;28;20576;-80
2022/05/15 06:04:42;;;;;;;3.83;2.20;;;22.00;97.30;;;;;;5032673;28;20595;-81
2022/05/15 06:07:11;;;;;;;5.37;2.90;;;22.90;96.40;;;;;;4999818;28;20635;-80
2022/05/15 06:09:40;;;;;;;6.30;2.73;;;23.60;94.50;;;;;;5032405;28;20591;-81
2022/05/15 06:12:06;;;;;;;8.90;2.73;;;24.20;92.90;;;;;;5033503;28;20704;-74
2022/05/15 06:14:32;;;;;;;6.60;3.20;;;24.80;91.60;;;;;;5033458;28;20583;-74
2022/05/15 06:16:58;;;;;;;7.20;2.73;;;25.30;89.30;;;;;;5033421;28;20579;-74
2022/05/15 06:19:24;;;;;;;3.93;2.60;;;25.70;86.60;;;;;;5033918;28;20572;-74
2022/05/15 06:21:49;;;;;;;5.43;2.57;;;26.00;81.30;;;;;;5033462;28;20927;-75
2022/05/15 06:24:15;;;;;;;3.83;2.50;;;26.40;81.10;;;;;;5032414;28;20304;-74
2022/05/15 06:26:41;;;;;;;3.27;2.10;;;26.60;80.40;;;;;;5033158;28;20198;-75
2022/05/15 06:29:07;;;;;;;3.03;1.97;;;27.00;78.40;;;;;;5032524;28;20568;-73
2022/05/15 06:31:33;;;;;;;4.23;2.40;;;27.50;75.80;;;;;;5032005;28;20197;-74
2022/05/15 06:33:58;;;;;;;5.57;2.60;;;27.90;75.20;;;;;;5033372;28;20174;-74
2022/05/15 06:36:24;;;;;;;4.03;2.47;;;28.10;72.50;;;;;;5033623;28;20169;-74
2022/05/15 06:38:50;;;;;;;3.67;1.80;;;28.40;68.60;;;;;;5025865;28;20240;-74
2022/05/15 06:41:16;;;;;;;4.70;1.83;;;28.60;68.10;;;;;;5033305;28;20194;-74
2022/05/15 06:43:41;;;;;;;7.83;2.57;;;28.90;67.10;;;;;;5033265;28;20169;-74
2022/05/15 06:46:07;;;;;;;3.90;1.93;;;29.30;66.40;;;;;;5031592;28;20620;-74
2022/05/15 06:48:35;;;;;;;4.63;2.40;;;29.40;63.10;;;;;;5031366;28;20944;-75
2022/05/15 06:51:02;;;;;;;5.30;2.10;;;29.40;60.50;;;;;;5031221;28;20277;-77
2022/05/15 06:53:28;;;;;;;4.10;2.10;;;29.20;58.80;;;;;;5031692;28;20593;-75
2022/05/15 06:58:38;;;;;;;3.23;1.90;;;29.30;58.80;;;;;;5028627;28;20603;-75
2022/05/15 07:01:04;;;;;;;3.90;1.70;;;29.70;58.90;;;;;;5032333;28;20616;-74
2022/05/15 07:03:30;;;;;;;4.67;1.97;;;30.10;58.90;;;;;;5033028;28;20177;-75
2022/05/15 07:05:56;;;;;;;4.60;2.83;;;30.70;58.90;;;;;;5031213;28;20677;-74
2022/05/15 07:08:22;;;;;;;3.90;1.77;;;30.90;54.70;;;;;;5031475;28;20641;-74
2022/05/15 07:10:49;;;;;;;4.50;2.30;;;30.80;54.90;;;;;;5031855;28;20210;-74
2022/05/15 07:13:14;;;;;;;4.33;1.93;;;30.80;54.10;;;;;;5029509;28;20584;-73
2022/05/15 07:15:40;;;;;;;4.83;2.27;;;30.80;54.10;;;;;;5031379;28;20650;-75
2022/05/15 07:18:07;;;;;;;3.87;1.90;;;30.70;53.30;;;;;;5030911;28;20209;-74
2022/05/15 07:20:34;;;;;;;6.13;2.43;;;30.70;53.60;;;;;;5032122;28;20284;-74
2022/05/15 07:23:00;;;;;;;3.43;2.13;;;31.10;54.00;;;;;;5032292;28;20588;-74
2022/05/15 07:25:27;;;;;;;8.53;2.10;;;31.50;53.80;;;;;;5032609;28;20565;-75
2022/05/15 07:27:53;;;;;;;3.83;2.00;;;31.80;53.40;;;;;;5031065;28;20562;-75
2022/05/15 07:30:19;;;;;;;3.97;2.23;;;32.10;52.60;;;;;;5028517;28;20633;-74
2022/05/15 07:32:45;;;;;;;4.27;1.70;;;32.20;50.50;;;;;;5032463;28;20571;-74
2022/05/15 07:35:12;;;;;;;4.57;2.70;;;32.10;50.30;;;;;;5032364;28;20626;-73
2022/05/15 07:37:38;;;;;;;4.10;2.50;;;31.90;49.00;;;;;;5031900;28;20261;-74
2022/05/15 07:40:04;;;;;;;3.47;1.80;;;31.70;48.60;;;;;;5032161;28;20601;-74
2022/05/15 07:42:31;;;;;;;4.60;2.10;;;31.60;49.20;;;;;;5028630;28;20648;-74
2022/05/15 07:45:00;;;;;;;3.53;2.10;;;31.70;49.20;;;;;;5031196;28;20594;-73
2022/05/15 07:47:26;;;;;;;5.70;2.00;;;31.80;49.20;;;;;;5030569;28;20732;-74
2022/05/15 07:49:52;;;;;;;2.83;1.87;;;32.00;49.10;;;;;;5024655;28;20669;-74
2022/05/15 07:52:18;;;;;;;8.60;2.10;;;32.40;49.00;;;;;;5031159;28;20591;-74
2022/05/15 07:54:44;;;;;;;4.27;1.80;;;32.80;49.00;;;;;;5031792;28;20176;-75
2022/05/15 07:57:10;;;;;;;4.73;1.83;;;33.40;49.60;;;;;;5031623;28;20754;-75
2022/05/15 07:59:36;;;;;;;4.87;1.77;;;33.80;47.30;;;;;;5031823;28;20168;-75
2022/05/15 08:02:06;;;;;;;5.23;1.80;;;33.90;46.60;;;;;;5029834;28;21253;-75
2022/05/15 08:08:00;;;;;;;5.53;2.47;;;34.10;46.20;;;;;;5032070;28;20696;-74
2022/05/15 08:10:04;;;;;;;5.60;1.80;;;34.20;45.10;;;;;;5026596;28;20646;-74
2022/05/15 08:12:30;;;;;;;3.80;1.87;;;34.50;45.60;;;;;;5031975;28;20583;-73
2022/05/15 08:14:55;;;;;;;7.33;2.10;;;34.70;44.60;;;;;;5026154;28;20589;-74
2022/05/15 08:17:21;;;;;;;5.27;2.30;;;34.70;44.20;;;;;;5031028;28;20174;-73
2022/05/15 08:25:19;;;;;;;4.73;1.77;;;35.10;44.30;;;;;;5028909;28;21245;-74
2022/05/15 08:27:45;;;;;;;4.60;1.50;;;35.30;43.90;;;;;;5029608;28;21104;-74
2022/05/15 08:30:11;;;;;;;3.57;1.40;;;35.60;43.80;;;;;;5031442;28;20599;-74
2022/05/15 08:32:37;;;;;;;4.20;1.60;;;35.90;43.40;;;;;;5031675;28;20166;-74
2022/05/15 08:35:02;;;;;;;3.40;1.40;;;36.10;43.20;;;;;;5031274;28;20565;-74
2022/05/15 08:37:29;;;;;;;4.37;1.53;;;36.40;42.10;;;;;;5030619;28;20227;-74
2022/05/15 08:39:55;;;;;;;3.60;1.53;;;36.70;42.70;;;;;;5030344;28;21165;-74
2022/05/15 08:42:55;;;;;;;3.37;1.50;;;37.00;41.90;;;;;;5030409;28;20568;-74
2022/05/15 08:45:25;;;;;;;2.80;1.47;;;37.20;42.30;;;;;;5009241;28;20557;-74
2022/05/15 08:48:01;;;;;;;3.60;1.27;;;37.40;41.50;;;;;;5031204;28;20580;-74
2022/05/15 08:50:32;;;;;;;3.47;1.50;;;37.60;40.30;;;;;;5031242;28;20599;-74
2022/05/15 08:53:02;;;;;;;7.20;2.20;;;37.70;39.50;;;;;;5031325;28;20931;-74
2022/05/15 08:55:36;;;;;;;4.00;1.70;;;37.70;39.50;;;;;;5029300;28;20592;-75
2022/05/15 08:58:07;;;;;;;4.00;1.70;;;37.90;38.40;;;;;;5031053;28;20577;-74
2022/05/15 09:00:40;;;;;;;4.10;1.40;;;37.70;38.20;;;;;;5027237;28;21159;-74
2022/05/15 09:03:11;;;;;;;3.97;1.50;;;37.50;38.50;;;;;;5031165;28;20606;-74
2022/05/15 09:05:39;;;;;;;3.23;1.30;;;37.60;38.80;;;;;;5027771;28;20620;-74
2022/05/15 09:08:24;;;;;;;2.33;1.23;;;37.50;37.60;;;;;;5030890;28;20580;-75
2022/05/15 09:11:01;;;;;;;3.13;1.30;;;37.40;37.30;;;;;;5030967;28;20953;-74
2022/05/15 09:13:42;;;;;;;2.83;1.40;;;37.20;37.00;;;;;;5031463;28;20568;-73
2022/05/15 09:16:22;;;;;;;2.97;1.57;;;37.20;38.20;;;;;;5029631;28;21210;-73
2022/05/15 09:18:49;;;;;;;4.43;1.57;;;37.50;38.20;;;;;;5030747;28;20580;-76
2022/05/15 09:21:17;;;;;;;2.53;1.20;;;37.90;38.00;;;;;;5029055;28;21012;-75
2022/05/15 09:23:49;;;;;;;3.20;1.40;;;38.10;37.40;;;;;;5031182;28;20577;-76
2022/05/15 09:26:20;;;;;;;4.10;1.10;;;38.40;36.90;;;;;;5014858;28;21044;-73
2022/05/15 09:28:54;;;;;;;3.07;1.40;;;38.50;36.10;;;;;;5027663;28;20575;-73
2022/05/15 09:31:26;;;;;;;3.83;1.23;;;38.60;35.10;;;;;;5015288;28;20643;-74
2022/05/15 09:34:02;;;;;;;2.70;1.17;;;38.70;35.60;;;;;;5030705;28;20600;-75
2022/05/15 09:36:35;;;;;;;3.07;0.90;;;39.10;35.40;;;;;;5034991;28;20567;-74
2022/05/15 09:39:24;;;;;;;5.90;1.33;;;39.40;35.30;;;;;;5033818;28;20572;-75
2022/05/15 09:45:09;;;;;;;3.50;1.40;;;39.40;33.50;;;;;;5032518;28;20936;-74
2022/05/15 09:47:43;;;;;;;3.13;1.47;;;38.90;32.20;;;;;;5034135;28;21004;-74
2022/05/15 09:50:30;;;;;;;2.93;1.43;;;38.70;33.00;;;;;;5034287;28;20606;-74
2022/05/15 09:52:57;;;;;;;3.23;1.23;;;38.60;32.50;;;;;;5032862;28;20990;-74
2022/05/15 09:55:25;;;;;;;3.20;1.40;;;38.50;32.50;;;;;;5034431;28;20575;-73
2022/05/15 09:57:58;;;;;;;1.63;1.00;;;38.10;33.00;;;;;;5033946;28;20560;-73
2022/05/15 10:00:27;;;;;;;2.90;0.93;;;38.10;33.30;;;;;;5034109;28;20624;-74
2022/05/15 10:02:56;;;;;;;2.30;0.90;;;38.10;32.60;;;;;;5033179;28;20579;-74
2022/05/15 10:05:33;;;;;;;2.27;1.00;;;37.90;32.90;;;;;;5033010;28;20564;-73
2022/05/15 10:08:22;;;;;;;4.63;1.50;;;38.00;32.70;;;;;;5033622;28;20569;-75
2022/05/15 10:11:01;;;;;;;3.90;1.30;;;38.10;31.90;;;;;;5032252;28;21045;-74
2022/05/15 10:13:37;;;;;;;7.63;1.10;;;37.80;32.10;;;;;;5032804;28;21131;-74
2022/05/15 10:16:17;;;;;;;3.73;1.30;;;37.50;32.20;;;;;;5023613;28;20626;-73
2022/05/15 10:19:15;;;;;;;4.10;1.70;;;37.30;31.80;;;;;;5033577;28;20608;-74
2022/05/15 10:21:49;;;;;;;4.70;1.70;;;37.10;32.30;;;;;;5024639;28;20647;-74
2022/05/15 10:24:20;;;;;;;2.97;1.00;;;37.20;32.90;;;;;;5030119;28;20584;-75
2022/05/15 10:27:10;;;;;;;3.13;0.90;;;37.60;33.50;;;;;;5031825;28;20599;-75
2022/05/15 10:30:13;;;;;;;2.67;1.33;;;38.20;32.80;;;;;;5027456;28;20588;-76
2022/05/15 10:33:08;;;;;;;3.07;1.23;;;38.70;31.10;;;;;;5022585;28;20679;-74
2022/05/15 10:35:45;;;;;;;2.93;1.13;;;38.60;31.80;;;;;;5011187;28;20595;-74
2022/05/15 10:38:22;;;;;;;3.80;1.20;;;38.70;31.70;;;;;;5019062;28;20940;-74
2022/05/15 10:41:05;;;;;;;3.13;0.90;;;38.70;31.50;;;;;;5021743;28;20616;-74
2022/05/15 10:43:55;;;;;;;1.73;0.87;;;38.60;32.00;;;;;;5031935;28;20608;-75
2022/05/15 10:46:46;;;;;;;2.33;1.17;;;38.60;31.90;;;;;;5033233;28;20608;-76
2022/05/15 10:49:49;;;;;;;3.00;1.20;;;38.40;31.90;;;;;;5032709;28;20698;-76
2022/05/15 10:52:25;;;;;;;3.07;1.10;;;38.10;31.10;;;;;;5032764;28;20241;-74
2022/05/15 10:57:56;;;;;;;6.03;1.27;;;37.90;30.80;;;;;;5030199;28;20599;-73
2022/05/15 11:00:55;;;;;;;3.07;1.10;;;37.60;30.60;;;;;;5012077;28;20604;-73
2022/05/15 11:03:45;;;;;;;4.07;1.07;;;37.10;30.30;;;;;;4997929;28;20667;-73
2022/05/15 11:06:36;;;;;;;5.60;1.10;;;36.90;31.40;;;;;;5013256;28;20592;-73
2022/05/15 11:09:30;;;;;;;1.83;0.80;;;36.80;31.00;;;;;;5031076;28;20608;-74
2022/05/15 11:12:02;;;;;;;2.60;0.80;;;36.90;31.70;;;;;;5026334;28;20588;-74
2022/05/15 11:14:44;;;;;;;3.00;1.17;;;37.10;32.00;;;;;;5030930;28;20573;-73
2022/05/15 11:17:31;;;;;;;2.83;1.30;;;37.20;31.30;;;;;;5030080;28;20628;-74
2022/05/15 11:20:04;;;;;;;3.53;1.20;;;37.00;31.20;;;;;;5029113;28;20965;-73
2022/05/15 11:22:40;;;;;;;2.40;1.20;;;36.70;30.70;;;;;;5032456;28;20920;-74
2022/05/15 11:25:19;;;;;;;2.97;1.00;;;36.60;31.50;;;;;;5023087;28;20957;-74
2022/05/15 11:27:53;;;;;;;4.57;1.00;;;36.70;31.60;;;;;;5011329;28;20565;-72
2022/05/15 11:30:32;;;;;;;2.63;1.20;;;36.80;31.80;;;;;;5026873;28;20608;-73
2022/05/15 11:33:29;;;;;;;4.30;1.07;;;37.00;31.00;;;;;;5029435;28;20667;-74
2022/05/15 11:36:10;;;;;;;2.40;0.83;;;36.60;30.40;;;;;;5029755;28;20614;-73
2022/05/15 11:39:05;;;;;;;2.77;1.07;;;36.50;31.40;;;;;;5030065;28;21092;-73
2022/05/15 11:41:37;;;;;;;3.43;1.23;;;36.30;31.30;;;;;;5030043;28;20600;-73
2022/05/15 11:44:06;;;;;;;2.43;1.10;;;36.20;30.70;;;;;;5030648;28;20581;-73
2022/05/15 11:46:47;;;;;;;2.23;1.10;;;36.10;30.90;;;;;;5030111;28;20580;-74
2022/05/15 11:49:39;;;;;;;2.53;1.00;;;35.90;31.10;;;;;;5032277;28;20581;-73
2022/05/15 11:52:05;;;;;;;2.70;0.90;;;35.90;31.30;;;;;;5031913;28;20591;-74
2022/05/15 11:54:38;;;;;;;3.10;1.10;;;35.90;31.30;;;;;;5032281;28;20791;-74
2022/05/15 11:57:13;;;;;;;3.50;1.30;;;35.70;30.60;;;;;;5031639;28;20616;-73
2022/05/15 11:59:53;;;;;;;2.20;0.93;;;35.50;30.40;;;;;;5014230;28;20580;-74
2022/05/15 12:02:21;;;;;;;4.33;1.23;;;35.20;30.60;;;;;;5032207;28;20675;-75
2022/05/15 12:04:55;;;;;;;4.40;1.20;;;35.00;30.70;;;;;;5032068;28;20630;-74
2022/05/15 12:07:32;;;;;;;4.03;1.03;;;34.60;30.90;;;;;;5036155;28;20615;-74
2022/05/15 12:09:58;;;;;;;6.33;1.00;;;34.20;31.50;;;;;;5045865;28;20633;-74
2022/05/15 12:12:23;;;;;;;3.50;1.00;;;34.20;31.40;;;;;;5051035;23;20676;-74
2022/05/15 12:15:13;;;;;;;1.80;0.80;;;34.10;31.10;;;;;;5046004;28;20264;-74
2022/05/15 12:17:59;;;;;;;3.27;1.03;;;34.00;31.00;;;;;;5031048;28;20633;-74
2022/05/15 12:20:28;;;;;;;3.53;1.10;;;33.90;30.60;;;;;;5031419;28;20594;-74
2022/05/15 12:23:01;;;;;;;2.83;0.90;;;33.70;30.70;;;;;;5029745;28;20679;-74
2022/05/15 12:25:31;;;;;;;5.63;0.93;;;33.60;30.80;;;;;;5031697;28;20572;-74
2022/05/15 12:31:13;;;;;;;2.13;0.80;;;33.40;31.00;;;;;;5029634;28;20599;-72
2022/05/15 12:33:40;;;;;;;1.93;0.87;;;33.40;31.50;;;;;;5031125;28;20578;-72
2022/05/15 12:36:15;;;;;;;2.80;0.80;;;33.50;31.80;;;;;;5027765;28;20630;-73
2022/05/15 12:38:50;;;;;;;2.47;1.10;;;33.30;31.30;;;;;;5044338;28;20589;-72
2022/05/15 12:41:26;;;;;;;4.20;1.30;;;33.30;31.20;;;;;;5027158;28;20685;-73
2022/05/15 12:43:53;;;;;;;3.90;1.00;;;33.00;31.00;;;;;;5030335;28;20584;-72
2022/05/15 12:46:29;;;;;;;2.60;0.80;;;32.80;31.30;;;;;;5030892;28;20932;-72
2022/05/15 12:48:55;;;;;;;3.80;0.90;;;32.60;31.00;;;;;;5031119;28;20587;-72
2022/05/15 12:51:33;;;;;;;2.43;1.00;;;32.50;31.20;;;;;;5046400;28;20599;-72
2022/05/15 12:54:02;;;;;;;2.97;1.10;;;32.20;31.80;;;;;;5031214;28;20579;-72
2022/05/15 12:56:35;;;;;;;3.20;1.20;;;32.00;31.40;;;;;;5031334;28;20620;-72
2022/05/15 12:59:21;;;;;;;3.00;0.90;;;31.60;31.20;;;;;;5030707;28;20559;-72
2022/05/15 13:01:47;;;;;;;2.33;0.80;;;31.30;31.70;;;;;;5030082;28;20620;-72
2022/05/15 13:04:23;;;;;;;2.70;0.90;;;31.00;31.80;;;;;;5032672;28;20584;-72
2022/05/15 13:06:54;;;;;;;2.07;0.90;;;30.80;32.30;;;;;;5033589;28;21028;-73
2022/05/15 13:09:23;;;;;;;3.50;1.20;;;30.50;32.40;;;;;;5035199;28;20576;-73
2022/05/15 13:11:54;;;;;;;1.80;0.87;;;30.40;32.70;;;;;;5033662;28;20646;-73
2022/05/15 13:14:25;;;;;;;2.27;1.03;;;30.40;32.80;;;;;;5027537;28;20687;-73
2022/05/15 13:16:53;;;;;;;3.40;1.03;;;30.20;32.80;;;;;;5032955;28;21245;-73
2022/05/15 13:19:32;;;;;;;3.30;1.43;;;30.10;33.10;;;;;;5034864;28;20684;-73
2022/05/15 13:22:00;;;;;;;2.53;1.07;;;30.00;33.60;;;;;;5034681;28;21150;-74
2022/05/15 13:24:27;;;;;;;5.40;2.53;;;29.90;33.10;;;;;;5035368;28;20573;-74